createdAt,value
2023-01-17T00:01:33.900Z,97534.59
2023-01-17T00:04:20.417Z,97528.59
2023-01-17T00:07:05.444Z,97521.63
2023-01-17T00:09:51.103Z,97525.09
2023-01-17T00:12:17.891Z,97518.97
2023-01-17T00:14:44.651Z,97520.72
2023-01-17T00:17:11.272Z,97520.72
2023-01-17T00:19:56.511Z,97514.81
2023-01-17T00:22:47.277Z,97510.44
2023-01-17T00:25:35.192Z,97495.72
2023-01-17T00:28:03.848Z,97496.59
2023-01-17T00:30:30.923Z,97500.91
2023-01-17T00:32:57.284Z,97500.91
2023-01-17T00:35:25.843Z,97494.00
2023-01-17T00:38:10.413Z,97499.25
2023-01-17T00:40:39.157Z,97498.31
2023-01-17T00:43:25.600Z,97495.72
2023-01-17T00:46:10.908Z,97496.66
2023-01-17T00:48:56.482Z,97501.78
2023-01-17T00:51:42.869Z,97489.72
2023-01-17T00:54:28.832Z,97491.41
2023-01-17T00:57:14.800Z,97491.41
2023-01-17T01:00:00.378Z,97487.06
2023-01-17T01:02:46.058Z,97492.16
2023-01-17T01:05:31.901Z,97486.00
2023-01-17T01:08:17.277Z,97485.16
2023-01-17T01:11:03.707Z,97479.06
2023-01-17T01:13:50.418Z,97475.72
2023-01-17T01:16:36.782Z,97479.13
2023-01-17T01:19:23.619Z,97480.97
2023-01-17T01:22:08.541Z,97478.38
2023-01-17T01:24:53.505Z,97482.69
2023-01-17T01:27:38.359Z,97485.28
2023-01-17T01:30:23.707Z,97490.47
2023-01-17T01:33:08.853Z,97484.47
2023-01-17T01:35:36.785Z,97484.53
2023-01-17T01:38:03.847Z,97475.94
2023-01-17T01:40:30.521Z,97479.44
2023-01-17T01:42:58.311Z,97477.75
2023-01-17T01:45:30.691Z,97471.81
2023-01-17T01:48:23.470Z,97467.63
2023-01-17T01:50:51.033Z,97456.53
2023-01-17T01:53:20.754Z,97468.75
2023-01-17T01:55:49.689Z,97463.66
2023-01-17T01:58:24.956Z,97461.94
2023-01-17T02:00:51.794Z,97471.53
2023-01-17T02:03:24.242Z,97465.59
2023-01-17T02:05:52.061Z,97463.97
2023-01-17T02:08:22.748Z,97465.81
2023-01-17T02:10:50.680Z,97462.38
2023-01-17T02:13:20.698Z,97464.22
2023-01-17T02:16:06.861Z,97465.03
2023-01-17T02:19:11.935Z,97455.47
2023-01-17T02:21:54.559Z,97468.50
2023-01-17T02:24:30.075Z,97457.28
2023-01-17T02:27:01.594Z,97450.41
2023-01-17T02:29:58.958Z,97447.78
2023-01-17T02:32:40.772Z,97447.78
2023-01-17T02:35:29.772Z,97446.84
2023-01-17T02:38:28.285Z,97454.59
2023-01-17T02:41:03.091Z,97445.19
2023-01-17T02:43:30.068Z,97452.00
2023-01-17T02:45:56.574Z,97444.31
2023-01-17T02:48:26.610Z,97447.78
2023-01-17T02:51:22.558Z,97450.41
2023-01-17T02:53:55.123Z,97452.16
2023-01-17T02:56:34.403Z,97453.84
2023-01-17T02:59:20.982Z,97451.25
2023-01-17T03:01:56.523Z,97448.69
2023-01-17T03:04:51.186Z,97445.19
2023-01-17T03:07:23.632Z,97452.09
2023-01-17T03:09:56.161Z,97451.19
2023-01-17T03:12:22.674Z,97451.13
2023-01-17T03:14:49.277Z,97457.06
2023-01-17T03:17:16.389Z,97454.50
2023-01-17T03:19:43.252Z,97451.81
2023-01-17T03:22:09.949Z,97443.97
2023-01-17T03:24:36.420Z,97443.97
2023-01-17T03:27:02.897Z,97449.16
2023-01-17T03:29:29.718Z,97444.88
2023-01-17T03:31:56.257Z,97452.56
2023-01-17T03:34:22.926Z,97451.66
2023-01-17T03:36:49.745Z,97444.81
2023-01-17T03:39:16.278Z,97449.09
2023-01-17T03:41:42.792Z,97444.66
2023-01-17T03:44:09.488Z,97445.50
2023-01-17T03:46:36.728Z,97442.06
2023-01-17T03:49:03.098Z,97442.91
2023-01-17T03:51:29.841Z,97445.59
2023-01-17T03:53:56.543Z,97443.00
2023-01-17T03:56:23.060Z,97445.59
2023-01-17T03:58:49.712Z,97444.56
2023-01-17T04:01:16.326Z,97447.16
2023-01-17T04:03:42.925Z,97447.13
2023-01-17T04:06:09.678Z,97445.34
2023-01-17T04:08:36.440Z,97447.88
2023-01-17T04:11:03.077Z,97447.03
2023-01-17T04:13:29.792Z,97442.69
2023-01-17T04:15:56.374Z,97442.69
2023-01-17T04:18:24.213Z,97443.59
2023-01-17T04:20:51.487Z,97446.19
2023-01-17T04:23:18.436Z,97447.81
2023-01-17T04:25:45.068Z,97439.94
2023-01-17T04:28:12.403Z,97445.06
2023-01-17T04:30:38.878Z,97443.31
2023-01-17T04:33:05.903Z,97445.91
2023-01-17T04:35:33.468Z,97443.31
2023-01-17T04:38:00.533Z,97444.22
2023-01-17T04:40:26.933Z,97442.53
2023-01-17T04:42:54.555Z,97450.31
2023-01-17T04:45:21.596Z,97438.22
2023-01-17T04:47:48.025Z,97437.28
2023-01-17T04:50:14.883Z,97445.91
2023-01-17T04:52:41.385Z,97451.91
2023-01-17T04:55:08.322Z,97454.44
2023-01-17T04:57:35.039Z,97452.72
2023-01-17T05:00:01.716Z,97450.13
2023-01-17T05:02:28.258Z,97459.53
2023-01-17T05:04:54.762Z,97462.06
2023-01-17T05:07:21.353Z,97458.63
2023-01-17T05:09:47.964Z,97463.75
2023-01-17T05:12:14.832Z,97455.06
2023-01-17T05:14:41.433Z,97464.44
2023-01-17T05:17:07.995Z,97462.69
2023-01-17T05:19:36.899Z,97459.34
2023-01-17T05:22:04.011Z,97471.50
2023-01-17T05:24:33.403Z,97475.16
2023-01-17T05:27:03.171Z,97477.06
2023-01-17T05:29:30.738Z,97495.25
2023-01-17T05:31:57.466Z,97497.09
2023-01-17T05:34:24.271Z,97498.94
2023-01-17T05:36:51.252Z,97505.16
2023-01-17T05:39:18.417Z,97509.56
2023-01-17T05:41:44.971Z,97518.28
2023-01-17T05:44:11.552Z,97518.50
2023-01-17T05:46:38.111Z,97520.31
2023-01-17T05:49:04.877Z,97533.41
2023-01-17T05:51:31.439Z,97526.75
2023-01-17T05:53:58.003Z,97529.41
2023-01-17T05:56:24.817Z,97529.78
2023-01-17T05:58:51.337Z,97534.19
2023-01-17T06:01:17.834Z,97529.34
2023-01-17T06:03:44.391Z,97523.47
2023-01-17T06:06:11.275Z,97521.00
2023-01-17T06:08:37.715Z,97526.25
2023-01-17T06:11:04.306Z,97528.06
2023-01-17T06:13:33.503Z,97532.41
2023-01-17T06:16:04.142Z,97534.03
2023-01-17T06:18:31.634Z,97528.00
2023-01-17T06:20:58.364Z,97530.50
2023-01-17T06:23:25.638Z,97529.59
2023-01-17T06:25:52.254Z,97540.84
2023-01-17T06:28:21.334Z,97543.34
2023-01-17T06:30:48.427Z,97547.50
2023-01-17T06:33:15.179Z,97552.59
2023-01-17T06:35:48.479Z,97568.03
2023-01-17T06:38:15.241Z,97585.44
2023-01-17T06:40:42.463Z,97586.28
2023-01-17T06:43:09.134Z,97589.78
2023-01-17T06:45:36.376Z,97593.19
2023-01-17T06:48:04.119Z,97599.28
2023-01-17T06:50:33.502Z,97609.69
2023-01-17T06:53:02.752Z,97623.50
2023-01-17T06:55:30.884Z,97616.78
2023-01-17T06:57:59.574Z,97631.50
2023-01-17T07:00:27.418Z,97653.97
2023-01-17T07:02:54.594Z,97651.53
2023-01-17T07:05:21.575Z,97668.84
2023-01-17T07:07:48.372Z,97662.97
2023-01-17T07:10:16.168Z,97689.88
2023-01-17T07:12:42.787Z,97673.56
2023-01-17T07:15:10.118Z,97685.78
2023-01-17T07:17:36.699Z,97693.66
2023-01-17T07:20:03.533Z,97705.69
2023-01-17T07:22:30.290Z,97710.94
2023-01-17T07:24:58.578Z,97714.53
2023-01-17T07:27:29.764Z,97711.19
2023-01-17T07:29:57.273Z,97726.72
2023-01-17T07:32:26.838Z,97717.44
2023-01-17T07:34:54.802Z,97723.47
2023-01-17T07:37:21.988Z,97735.66
2023-01-17T07:39:49.255Z,97746.00
2023-01-17T07:42:16.144Z,97753.75
2023-01-17T07:44:44.003Z,97765.78
2023-01-17T07:47:11.394Z,97770.13
2023-01-17T07:49:37.934Z,97777.91
2023-01-17T07:52:07.306Z,97788.25
2023-01-17T07:54:33.871Z,97789.00
2023-01-17T07:57:01.298Z,97793.28
2023-01-17T07:59:27.858Z,97798.47
2023-01-17T08:01:54.753Z,97801.81
2023-01-17T08:04:21.473Z,97813.88
2023-01-17T08:06:50.712Z,97815.56
2023-01-17T08:09:17.247Z,97823.25
2023-01-17T08:11:43.713Z,97826.63
2023-01-17T08:14:10.532Z,97829.16
2023-01-17T08:16:38.045Z,97836.88
2023-01-17T08:19:04.698Z,97835.88
2023-01-17T08:21:31.327Z,97839.34
2023-01-17T08:23:57.837Z,97850.44
2023-01-17T08:26:25.466Z,97855.56
2023-01-17T08:29:02.832Z,97853.78
2023-01-17T08:31:34.991Z,97871.78
2023-01-17T08:34:01.574Z,97878.56
2023-01-17T08:36:28.790Z,97866.53
2023-01-17T08:38:55.616Z,97878.44
2023-01-17T08:41:23.674Z,97884.44
2023-01-17T08:43:52.014Z,97892.97
2023-01-17T08:46:19.500Z,97898.94
2023-01-17T08:48:46.483Z,97894.47
2023-01-17T08:51:13.745Z,97914.22
2023-01-17T08:53:40.748Z,97900.44
2023-01-17T08:56:07.282Z,97902.13
2023-01-17T08:58:35.075Z,97914.09
2023-01-17T09:01:03.552Z,97910.63
2023-01-17T09:03:31.661Z,97908.81
2023-01-17T09:06:17.627Z,97924.25
2023-01-17T09:08:47.791Z,97925.97
2023-01-17T09:11:16.805Z,97931.69
2023-01-17T09:13:46.308Z,97947.97
2023-01-17T09:16:13.055Z,97944.53
2023-01-17T09:18:39.816Z,97958.38
2023-01-17T09:21:15.112Z,97957.59
2023-01-17T09:23:41.966Z,97962.81
2023-01-17T09:26:22.571Z,97963.84
2023-01-17T09:28:49.200Z,97971.00
2023-01-17T09:31:17.607Z,97970.22
2023-01-17T09:33:44.574Z,97971.16
2023-01-17T09:36:11.398Z,97980.63
2023-01-17T09:38:38.637Z,97985.69
2023-01-17T09:41:21.988Z,97981.41
2023-01-17T09:43:56.795Z,97983.94
2023-01-17T09:46:27.904Z,97979.63
2023-01-17T09:49:14.604Z,97979.56
2023-01-17T09:51:42.475Z,97977.81
2023-01-17T09:54:21.913Z,97985.50
2023-01-17T09:57:34.828Z,98003.53
2023-01-17T10:00:16.740Z,98016.44
2023-01-17T10:03:08.416Z,98029.44
2023-01-17T10:05:48.683Z,98020.03
2023-01-17T10:08:55.411Z,98021.09
2023-01-17T10:11:44.650Z,98015.19
2023-01-17T10:14:30.140Z,98035.13
2023-01-17T10:17:09.124Z,98036.13
2023-01-17T10:19:57.370Z,98060.41
2023-01-17T10:22:52.145Z,98057.97
2023-01-17T10:25:33.633Z,98055.56
2023-01-17T10:28:12.475Z,98046.97
2023-01-17T10:31:00.942Z,98050.25
2023-01-17T10:33:35.982Z,98061.38
2023-01-17T10:36:11.414Z,98057.88
2023-01-17T10:38:38.822Z,98051.72
2023-01-17T10:41:15.965Z,98048.06
2023-01-17T10:43:51.713Z,98054.06
2023-01-17T10:46:38.758Z,98046.34
2023-01-17T10:49:05.596Z,98051.53
2023-01-17T10:51:49.759Z,98046.34
2023-01-17T10:54:36.021Z,98049.78
2023-01-17T10:57:02.851Z,98051.47
2023-01-17T10:59:34.374Z,98054.91
2023-01-17T11:02:07.332Z,98053.22
2023-01-17T11:04:36.538Z,98066.13
2023-01-17T11:07:11.235Z,98059.19
2023-01-17T11:09:49.848Z,98063.41
2023-01-17T11:12:20.985Z,98059.88
2023-01-17T11:14:58.031Z,98071.88
2023-01-17T11:17:25.042Z,98066.50
2023-01-17T11:19:51.602Z,98074.03
2023-01-17T11:22:18.700Z,98083.41
2023-01-17T11:24:53.248Z,98085.91
2023-01-17T11:27:31.858Z,98100.38
2023-01-17T11:30:18.283Z,98099.56
2023-01-17T11:32:57.222Z,98088.44
2023-01-17T11:35:27.772Z,98083.34
2023-01-17T11:38:20.000Z,98096.41
2023-01-17T11:40:48.402Z,98092.16
2023-01-17T11:43:26.649Z,98095.50
2023-01-17T11:46:04.443Z,98111.81
2023-01-17T11:48:36.873Z,98117.81
2023-01-17T11:51:06.850Z,98122.94
2023-01-17T11:53:38.198Z,98130.75
2023-01-17T11:56:05.911Z,98120.50
2023-01-17T11:58:38.489Z,98128.38
2023-01-17T12:01:23.819Z,98122.41
2023-01-17T12:04:04.773Z,98128.47
2023-01-17T12:06:56.774Z,98127.00
2023-01-17T12:09:27.442Z,98133.25
2023-01-17T12:12:24.985Z,98138.47
2023-01-17T12:15:14.854Z,98136.84
2023-01-17T12:17:55.081Z,98141.25
2023-01-17T12:20:51.962Z,98141.19
2023-01-17T12:23:49.689Z,98146.06
2023-01-17T12:26:29.127Z,98151.94
2023-01-17T12:29:22.943Z,98163.78
2023-01-17T12:32:26.751Z,98160.59
2023-01-17T12:35:00.703Z,98141.97
2023-01-17T12:37:36.520Z,98150.09
2023-01-17T12:40:15.498Z,98137.38
2023-01-17T12:42:48.865Z,98140.06
2023-01-17T12:45:26.759Z,98140.06
2023-01-17T12:48:00.663Z,98155.53
2023-01-17T12:50:31.643Z,98152.06
2023-01-17T12:53:16.516Z,98155.47
2023-01-17T12:55:58.504Z,98159.66
2023-01-17T12:58:30.997Z,98162.84
2023-01-17T13:01:20.209Z,98164.19
2023-01-17T13:04:18.281Z,98173.50
2023-01-17T13:06:47.125Z,98180.22
2023-01-17T13:09:19.763Z,98179.16
2023-01-17T13:11:51.724Z,98191.91
2023-01-17T13:14:18.453Z,98187.50
2023-01-17T13:16:54.704Z,98190.00
2023-01-17T13:19:36.625Z,98194.25
2023-01-17T13:22:07.249Z,98195.13
2023-01-17T13:24:53.515Z,98202.78
2023-01-17T13:27:43.408Z,98203.50
2023-01-17T13:30:45.835Z,98204.44
2023-01-17T13:33:44.855Z,98216.56
2023-01-17T13:36:38.891Z,98214.03
2023-01-17T13:39:24.118Z,98215.78
2023-01-17T13:41:57.099Z,98231.41
2023-01-17T13:44:27.198Z,98235.97
2023-01-17T13:46:55.200Z,98243.09
2023-01-17T13:49:35.372Z,98250.13
2023-01-17T13:52:12.353Z,98260.53
2023-01-17T13:54:50.826Z,98252.88
2023-01-17T13:57:29.359Z,98247.63
2023-01-17T13:59:58.360Z,98248.53
2023-01-17T14:02:36.379Z,98254.53
2023-01-17T14:05:18.048Z,98249.34
2023-01-17T14:07:57.137Z,98254.56
2023-01-17T14:10:41.392Z,98258.06
2023-01-17T14:13:41.445Z,98262.44
2023-01-17T14:16:28.876Z,98268.66
2023-01-17T14:18:58.051Z,98263.69
2023-01-17T14:21:35.800Z,98267.22
2023-01-17T14:24:16.281Z,98274.19
2023-01-17T14:26:59.512Z,98269.06
2023-01-17T14:29:56.788Z,98276.03
2023-01-17T14:32:36.360Z,98283.06
2023-01-17T14:35:04.810Z,98285.66
2023-01-17T14:37:44.616Z,98283.06
2023-01-17T14:40:30.769Z,98287.41
2023-01-17T14:43:15.913Z,98283.13
2023-01-17T14:45:43.514Z,98280.59
2023-01-17T14:48:22.520Z,98290.22
2023-01-17T14:50:54.547Z,98286.75
2023-01-17T14:53:22.807Z,98293.69
2023-01-17T14:55:49.782Z,98305.69
2023-01-17T14:58:26.897Z,98299.59
2023-01-17T15:00:58.555Z,98318.63
2023-01-17T15:03:25.611Z,98341.16
2023-01-17T15:05:54.229Z,98359.50
2023-01-17T15:08:25.507Z,98345.19
2023-01-17T15:11:02.997Z,98337.78
2023-01-17T15:13:43.871Z,98331.19
2023-01-17T15:16:41.188Z,98336.56
2023-01-17T15:19:13.752Z,98335.00
2023-01-17T15:21:43.254Z,98330.81
2023-01-17T15:24:19.675Z,98329.19
2023-01-17T15:26:46.797Z,98334.44
2023-01-17T15:29:18.862Z,98336.28
2023-01-17T15:31:57.277Z,98328.59
2023-01-17T15:34:31.026Z,98329.56
2023-01-17T15:37:04.888Z,98326.38
2023-01-17T15:39:35.684Z,98333.34
2023-01-17T15:42:06.668Z,98335.16
2023-01-17T15:44:48.374Z,98337.00
2023-01-17T15:47:48.945Z,98339.56
2023-01-17T15:50:22.302Z,98341.34
2023-01-17T15:52:50.650Z,98337.91
2023-01-17T15:55:38.710Z,98344.75
2023-01-17T15:58:22.867Z,98349.03
2023-01-17T16:00:49.750Z,98348.16
2023-01-17T16:03:22.596Z,98362.75
2023-01-17T16:05:50.737Z,98358.44
2023-01-17T16:08:24.636Z,98353.28
2023-01-17T16:10:57.966Z,98357.63
2023-01-17T16:13:25.157Z,98354.19
2023-01-17T16:15:51.597Z,98366.25
2023-01-17T16:18:20.240Z,98366.25
2023-01-17T16:20:53.924Z,98372.28
2023-01-17T16:23:20.903Z,98374.03
2023-01-17T16:25:47.976Z,98381.84
2023-01-17T16:28:17.686Z,98381.00
2023-01-17T16:30:44.748Z,98382.75
2023-01-17T16:33:11.992Z,98389.78
2023-01-17T16:35:40.091Z,98389.81
2023-01-17T16:38:11.479Z,98382.97
2023-01-17T16:40:44.376Z,98382.16
2023-01-17T16:43:12.147Z,98389.91
2023-01-17T16:45:47.041Z,98381.34
2023-01-17T16:48:14.619Z,98387.34
2023-01-17T16:50:47.895Z,98387.41
2023-01-17T16:53:15.361Z,98394.28
2023-01-17T16:55:43.991Z,98400.41
2023-01-17T16:58:12.994Z,98407.31
2023-01-17T17:00:40.365Z,98409.97
2023-01-17T17:03:07.231Z,98410.84
2023-01-17T17:05:34.786Z,98422.06
2023-01-17T17:08:01.530Z,98425.50
2023-01-17T17:10:27.969Z,98426.34
2023-01-17T17:12:55.318Z,98428.09
2023-01-17T17:15:21.794Z,98426.34
2023-01-17T17:17:48.554Z,98429.72
2023-01-17T17:20:16.115Z,98427.13
2023-01-17T17:22:44.090Z,98428.84
2023-01-17T17:25:15.828Z,98437.47
2023-01-17T17:27:42.814Z,98439.22
2023-01-17T17:30:10.728Z,98432.38
2023-01-17T17:32:37.345Z,98433.25
2023-01-17T17:35:04.362Z,98430.72
2023-01-17T17:37:32.030Z,98431.59
2023-01-17T17:39:58.611Z,98440.25
2023-01-17T17:42:25.653Z,98441.19
2023-01-17T17:44:52.264Z,98445.53
2023-01-17T17:47:18.847Z,98439.56
2023-01-17T17:49:45.496Z,98446.47
2023-01-17T17:52:12.140Z,98446.53
2023-01-17T17:54:38.584Z,98450.88
2023-01-17T17:57:07.807Z,98453.50
2023-01-17T17:59:34.812Z,98457.84
2023-01-17T18:02:01.527Z,98457.91
2023-01-17T18:04:27.993Z,98469.13
2023-01-17T18:06:58.023Z,98464.06
2023-01-17T18:09:24.872Z,98476.13
2023-01-17T18:11:51.478Z,98482.16
2023-01-17T18:14:20.915Z,98478.72
2023-01-17T18:16:48.570Z,98484.84
2023-01-17T18:19:18.810Z,98477.09
2023-01-17T18:21:45.715Z,98490.09
2023-01-17T18:24:14.819Z,98491.84
2023-01-17T18:26:50.126Z,98490.16
2023-01-17T18:29:19.548Z,98499.59
2023-01-17T18:31:47.396Z,98495.31
2023-01-17T18:34:17.694Z,98499.69
2023-01-17T18:36:44.912Z,98496.25
2023-01-17T18:39:14.765Z,98496.28
2023-01-17T18:41:41.367Z,98488.56
2023-01-17T18:44:08.556Z,98494.59
2023-01-17T18:46:36.192Z,98500.66
2023-01-17T18:49:06.221Z,98500.69
2023-01-17T18:51:34.692Z,98511.06
2023-01-17T18:54:05.890Z,98510.19
2023-01-17T18:56:36.465Z,98506.75
2023-01-17T18:59:05.700Z,98516.25
2023-01-17T19:01:35.468Z,98523.13
2023-01-17T19:04:04.444Z,98530.84
2023-01-17T19:06:41.620Z,98528.28
2023-01-17T19:09:10.579Z,98524.91
2023-01-17T19:11:38.022Z,98525.81
2023-01-17T19:14:06.104Z,98529.22
2023-01-17T19:16:35.794Z,98528.38
2023-01-17T19:19:15.160Z,98524.13
2023-01-17T19:21:42.734Z,98529.31
2023-01-17T19:24:10.816Z,98531.94
2023-01-17T19:26:37.364Z,98522.44
2023-01-17T19:29:05.134Z,98525.91
2023-01-17T19:31:35.990Z,98526.81
2023-01-17T19:34:02.706Z,98527.72
2023-01-17T19:36:33.894Z,98529.44
2023-01-17T19:39:05.677Z,98527.78
2023-01-17T19:41:35.483Z,98540.72
2023-01-17T19:44:05.125Z,98539.88
2023-01-17T19:46:32.389Z,98546.81
2023-01-17T19:48:59.675Z,98551.13
2023-01-17T19:51:26.866Z,98550.28
2023-01-17T19:53:56.490Z,98554.56
2023-01-17T19:56:25.499Z,98550.31
2023-01-17T19:58:52.532Z,98553.81
2023-01-17T20:01:20.824Z,98557.25
2023-01-17T20:03:51.269Z,98556.47
2023-01-17T20:06:20.788Z,98565.94
2023-01-17T20:08:47.392Z,98569.44
2023-01-17T20:11:19.944Z,98572.03
2023-01-17T20:13:47.859Z,98563.50
2023-01-17T20:16:16.852Z,98572.16
2023-01-17T20:18:43.769Z,98567.88
2023-01-17T20:21:13.577Z,98572.19
2023-01-17T20:23:46.805Z,98563.63
2023-01-17T20:26:46.513Z,98574.78
2023-01-17T20:29:15.495Z,98575.69
2023-01-17T20:31:43.476Z,98565.41
2023-01-17T20:34:12.756Z,98567.22
2023-01-17T20:36:41.652Z,98573.25
2023-01-17T20:39:08.780Z,98575.88
2023-01-17T20:41:39.788Z,98568.16
2023-01-17T20:44:07.778Z,98574.16
2023-01-17T20:46:40.531Z,98572.41
2023-01-17T20:49:13.649Z,98565.59
2023-01-17T20:51:40.649Z,98569.09
2023-01-17T20:54:12.878Z,98580.31
2023-01-17T20:56:40.299Z,98583.78
2023-01-17T20:59:09.695Z,98582.97
2023-01-17T21:01:37.088Z,98584.66
2023-01-17T21:04:04.702Z,98588.13
2023-01-17T21:06:31.251Z,98582.16
2023-01-17T21:09:00.908Z,98578.75
2023-01-17T21:11:27.860Z,98571.91
2023-01-17T21:13:57.363Z,98577.91
2023-01-17T21:16:24.122Z,98582.25
2023-01-17T21:18:51.821Z,98581.41
2023-01-17T21:21:21.995Z,98587.44
2023-01-17T21:23:50.161Z,98589.16
2023-01-17T21:26:18.352Z,98589.16
2023-01-17T21:28:47.488Z,98589.19
2023-01-17T21:31:24.666Z,98588.34
2023-01-17T21:33:52.549Z,98588.38
2023-01-17T21:36:20.667Z,98592.69
2023-01-17T21:38:52.133Z,98597.84
2023-01-17T21:41:20.663Z,98598.75
2023-01-17T21:43:47.886Z,98598.81
2023-01-17T21:46:14.677Z,98597.97
2023-01-17T21:48:41.297Z,98611.72
2023-01-17T21:51:08.768Z,98606.59
2023-01-17T21:53:36.807Z,98616.06
2023-01-17T21:56:23.797Z,98626.38
2023-01-17T21:58:54.520Z,98624.69
2023-01-17T22:01:23.762Z,98626.47
2023-01-17T22:03:51.698Z,98625.63
2023-01-17T22:06:19.821Z,98627.38
2023-01-17T22:08:46.554Z,98625.66
2023-01-17T22:11:15.882Z,98626.53
2023-01-17T22:13:43.682Z,98628.25
2023-01-17T22:16:13.598Z,98639.41
2023-01-17T22:18:42.710Z,98640.28
2023-01-17T22:21:13.673Z,98644.56
2023-01-17T22:23:45.491Z,98641.19
2023-01-17T22:26:11.964Z,98644.66
2023-01-17T22:28:39.585Z,98647.28
2023-01-17T22:31:08.835Z,98650.72
2023-01-17T22:33:36.482Z,98653.34
2023-01-17T22:36:03.228Z,98653.34
2023-01-17T22:38:30.355Z,98663.66
2023-01-17T22:41:07.688Z,98664.53
2023-01-17T22:43:41.545Z,98664.56
2023-01-17T22:46:10.997Z,98676.56
2023-01-17T22:48:38.750Z,98670.59
2023-01-17T22:51:07.595Z,98675.75
2023-01-17T22:53:34.763Z,98676.59
2023-01-17T22:56:05.293Z,98675.78
2023-01-17T22:58:32.449Z,98672.41
2023-01-17T23:01:09.626Z,98674.97
2023-01-17T23:03:36.564Z,98678.44
2023-01-17T23:06:12.230Z,98680.19
2023-01-17T23:08:40.757Z,98678.53
2023-01-17T23:11:39.152Z,98685.47
2023-01-17T23:14:09.017Z,98692.38
2023-01-17T23:16:55.548Z,98693.28
2023-01-17T23:19:22.441Z,98690.75
2023-01-17T23:22:14.995Z,98695.91
2023-01-17T23:24:48.870Z,98693.34
2023-01-17T23:27:38.716Z,98703.66
2023-01-17T23:30:11.095Z,98702.88
2023-01-17T23:32:39.571Z,98707.16
2023-01-17T23:35:06.923Z,98709.75
2023-01-17T23:37:52.135Z,98713.22
2023-01-17T23:40:19.264Z,98715.81
2023-01-17T23:43:04.481Z,98714.06
2023-01-17T23:45:35.009Z,98715.81
2023-01-17T23:48:01.932Z,98712.38
2023-01-17T23:50:30.792Z,98715.84
2023-01-17T23:52:57.715Z,98714.97
2023-01-17T23:55:27.372Z,98712.38
2023-01-17T23:57:54.858Z,98719.25
